createdAt,value
2017-11-10T00:02:01.683Z,207.65
2017-11-10T00:04:28.531Z,171.82
2017-11-10T00:06:55.398Z,143.98
2017-11-10T00:09:22.313Z,157.30
2017-11-10T00:11:49.458Z,198.85
2017-11-10T00:14:16.337Z,167.60
2017-11-10T00:16:43.210Z,160.70
2017-11-10T00:19:10.264Z,168.30
2017-11-10T00:21:37.450Z,135.00
2017-11-10T00:24:04.268Z,149.23
2017-11-10T00:26:31.130Z,140.55
2017-11-10T00:28:57.972Z,166.20
2017-11-10T00:31:25.131Z,135.65
2017-11-10T00:33:51.960Z,149.10
2017-11-10T00:36:18.840Z,133.18
2017-11-10T00:38:45.685Z,150.35
2017-11-10T00:41:12.529Z,148.23
2017-11-10T00:43:39.364Z,118.05
2017-11-10T00:46:06.493Z,134.45
2017-11-10T00:48:33.332Z,144.93
2017-11-10T00:51:00.180Z,144.45
2017-11-10T00:53:27.010Z,137.65
2017-11-10T00:55:53.848Z,137.43
2017-11-10T00:58:20.712Z,131.85
2017-11-10T01:00:47.852Z,148.30
2017-11-10T01:03:14.999Z,125.28
2017-11-10T01:05:41.840Z,131.60
2017-11-10T01:08:08.995Z,131.63
2017-11-10T01:10:36.146Z,115.45
2017-11-10T01:13:03.303Z,118.70
2017-11-10T01:15:30.140Z,141.90
2017-11-10T01:17:56.956Z,118.32
2017-11-10T01:20:23.791Z,115.80
2017-11-10T01:22:50.834Z,111.30
2017-11-10T01:25:17.919Z,143.13
2017-11-10T01:27:44.766Z,120.15
2017-11-10T01:30:11.607Z,126.70
2017-11-10T01:32:38.441Z,120.93
2017-11-10T01:35:05.286Z,113.20
2017-11-10T01:37:32.098Z,120.80
2017-11-10T01:39:58.914Z,122.70
2017-11-10T01:42:26.027Z,155.40
2017-11-10T01:44:53.074Z,143.65
2017-11-10T01:47:20.229Z,144.90
2017-11-10T01:49:47.380Z,135.23
2017-11-10T01:52:14.230Z,172.13
2017-11-10T01:54:41.072Z,143.00
2017-11-10T01:57:08.221Z,137.80
2017-11-10T01:59:35.104Z,132.43
2017-11-10T02:02:01.969Z,134.93
2017-11-10T02:04:29.155Z,144.00
2017-11-10T02:06:56.025Z,113.05
2017-11-10T02:09:23.148Z,124.30
2017-11-10T02:11:50.305Z,175.52
2017-11-10T02:14:17.450Z,158.77
2017-11-10T02:16:44.298Z,119.68
2017-11-10T02:19:11.441Z,109.10
2017-11-10T02:21:38.313Z,119.70
2017-11-10T02:24:05.173Z,107.03
2017-11-10T02:26:32.381Z,108.40
2017-11-10T02:28:59.537Z,114.82
2017-11-10T02:31:26.405Z,132.90
2017-11-10T02:33:53.301Z,115.00
2017-11-10T02:36:20.175Z,98.05
2017-11-10T02:38:47.320Z,104.30
2017-11-10T02:41:14.416Z,104.87
2017-11-10T02:43:41.240Z,108.60
2017-11-10T02:46:08.105Z,102.50
2017-11-10T02:48:34.992Z,100.90
2017-11-10T02:51:02.150Z,107.32
2017-11-10T02:53:29.297Z,111.28
2017-11-10T02:55:56.444Z,104.10
2017-11-10T02:58:23.592Z,118.10
2017-11-10T03:00:50.461Z,121.90
2017-11-10T03:03:17.367Z,128.77
2017-11-10T03:05:44.240Z,113.25
2017-11-10T03:08:11.097Z,134.07
2017-11-10T03:10:38.164Z,129.53
2017-11-10T03:13:05.269Z,113.97
2017-11-10T03:15:32.152Z,124.18
2017-11-10T03:17:59.016Z,120.05
2017-11-10T03:20:26.214Z,143.77
2017-11-10T03:22:53.264Z,149.80
2017-11-10T03:25:20.176Z,143.15
2017-11-10T03:27:47.252Z,170.70
2017-11-10T03:30:14.396Z,152.50
2017-11-10T03:32:41.290Z,180.77
2017-11-10T03:35:08.137Z,157.70
2017-11-10T03:37:35.234Z,187.02
2017-11-10T03:40:02.393Z,167.10
2017-11-10T03:42:29.236Z,190.95
2017-11-10T03:44:56.381Z,202.55
2017-11-10T03:47:23.534Z,186.80
2017-11-10T03:49:50.680Z,212.75
2017-11-10T03:52:17.829Z,276.93
2017-11-10T03:54:44.708Z,292.13
2017-11-10T03:57:11.544Z,291.80
2017-11-10T03:59:38.400Z,271.57
2017-11-10T04:02:05.258Z,294.75
2017-11-10T04:04:32.122Z,228.30
2017-11-10T04:06:58.960Z,237.32
2017-11-10T04:09:25.847Z,274.30
2017-11-10T04:11:52.737Z,300.10
2017-11-10T04:14:19.576Z,210.77
2017-11-10T04:16:46.435Z,191.62
2017-11-10T04:19:13.616Z,170.23
2017-11-10T04:21:40.444Z,166.57
2017-11-10T04:24:07.288Z,174.05
2017-11-10T04:26:34.451Z,140.90
2017-11-10T04:29:01.307Z,167.75
2017-11-10T04:31:28.164Z,158.85
2017-11-10T04:33:54.984Z,126.40
2017-11-10T04:36:21.854Z,152.45
2017-11-10T04:38:48.713Z,122.15
2017-11-10T04:41:15.586Z,103.93
2017-11-10T04:43:42.428Z,108.28
2017-11-10T04:46:09.324Z,102.72
2017-11-10T04:48:36.454Z,103.38
2017-11-10T04:51:03.318Z,107.25
2017-11-10T04:53:30.546Z,100.60
2017-11-10T04:55:57.697Z,104.55
2017-11-10T04:58:24.516Z,88.87
2017-11-10T05:00:51.380Z,90.87
2017-11-10T05:03:18.248Z,105.60
2017-11-10T05:05:45.133Z,106.97
2017-11-10T05:08:12.322Z,101.35
2017-11-10T05:10:39.175Z,105.00
2017-11-10T05:13:06.312Z,104.50
2017-11-10T05:15:33.196Z,92.85
2017-11-10T05:18:00.313Z,90.43
2017-11-10T05:20:27.132Z,91.40
2017-11-10T05:22:54.012Z,83.90
2017-11-10T05:25:21.150Z,89.57
2017-11-10T05:27:48.026Z,108.85
2017-11-10T05:30:15.244Z,99.28
2017-11-10T05:32:42.393Z,100.60
2017-11-10T05:35:09.546Z,93.95
2017-11-10T05:37:36.400Z,88.07
2017-11-10T05:40:03.326Z,89.70
2017-11-10T05:42:30.190Z,84.60
2017-11-10T05:44:57.330Z,118.50
2017-11-10T05:47:24.221Z,123.13
2017-11-10T05:49:51.086Z,102.00
2017-11-10T05:52:18.266Z,102.85
2017-11-10T05:54:45.417Z,93.60
2017-11-10T05:57:12.569Z,106.97
2017-11-10T05:59:39.712Z,87.62
2017-11-10T06:02:06.599Z,132.23
2017-11-10T06:04:33.526Z,88.83
2017-11-10T06:07:00.444Z,95.50
2017-11-10T06:09:27.305Z,93.25
2017-11-10T06:11:54.455Z,90.25
2017-11-10T06:14:21.326Z,85.35
2017-11-10T06:16:48.433Z,87.85
2017-11-10T06:19:15.580Z,94.30
2017-11-10T06:21:42.421Z,89.07
2017-11-10T06:24:09.590Z,92.20
2017-11-10T06:26:36.735Z,78.55
2017-11-10T06:29:03.552Z,85.30
2017-11-10T06:31:30.725Z,87.93
2017-11-10T06:33:57.556Z,92.97
2017-11-10T06:36:24.475Z,87.37
2017-11-10T06:38:51.341Z,84.10
2017-11-10T06:41:18.184Z,82.13
2017-11-10T06:43:45.020Z,86.00
2017-11-10T06:46:11.877Z,82.22
2017-11-10T06:48:38.764Z,76.87
2017-11-10T06:51:05.993Z,100.47
2017-11-10T06:53:32.861Z,87.47
2017-11-10T06:56:00.086Z,87.32
2017-11-10T06:58:27.236Z,88.10
2017-11-10T07:00:54.075Z,81.25
2017-11-10T07:03:20.940Z,87.50
2017-11-10T07:05:47.767Z,79.80
2017-11-10T07:08:14.909Z,82.45
2017-11-10T07:10:41.753Z,92.00
2017-11-10T07:13:08.608Z,83.72
2017-11-10T07:15:35.474Z,89.28
2017-11-10T07:18:02.590Z,78.97
2017-11-10T07:20:29.466Z,86.97
2017-11-10T07:22:56.585Z,105.28
2017-11-10T07:25:23.430Z,100.22
2017-11-10T07:27:50.271Z,79.37
2017-11-10T07:30:17.370Z,94.72
2017-11-10T07:32:44.204Z,81.03
2017-11-10T07:35:11.057Z,87.85
2017-11-10T07:37:37.929Z,84.70
2017-11-10T07:40:04.763Z,78.53
2017-11-10T07:42:31.634Z,73.87
2017-11-10T07:44:58.779Z,74.80
2017-11-10T07:47:25.933Z,81.90
2017-11-10T07:49:52.813Z,85.32
2017-11-10T07:52:19.924Z,79.00
2017-11-10T07:54:46.785Z,78.82
2017-11-10T07:57:13.665Z,75.12
2017-11-10T07:59:40.499Z,67.35
2017-11-10T08:02:07.375Z,75.25
2017-11-10T08:04:34.200Z,75.35
2017-11-10T08:07:01.057Z,67.93
2017-11-10T08:09:27.905Z,74.65
2017-11-10T08:11:55.082Z,73.07
2017-11-10T08:14:22.203Z,72.00
2017-11-10T08:16:49.032Z,59.30
2017-11-10T08:19:15.852Z,66.35
2017-11-10T08:21:42.965Z,58.53
2017-11-10T08:24:09.813Z,66.47
2017-11-10T08:26:36.656Z,64.95
2017-11-10T08:29:03.873Z,60.55
2017-11-10T08:31:30.742Z,51.15
2017-11-10T08:33:57.580Z,52.67
2017-11-10T08:36:24.751Z,59.47
2017-11-10T08:38:51.836Z,46.00
2017-11-10T08:41:18.682Z,44.38
2017-11-10T08:43:45.556Z,45.40
2017-11-10T08:46:12.705Z,43.60
2017-11-10T08:48:39.776Z,43.17
2017-11-10T08:51:06.658Z,42.00
2017-11-10T08:53:33.771Z,42.50
2017-11-10T08:56:00.583Z,37.23
2017-11-10T08:58:27.412Z,37.70
2017-11-10T09:00:54.248Z,38.92
2017-11-10T09:03:21.101Z,38.33
2017-11-10T09:05:47.950Z,33.60
2017-11-10T09:08:14.771Z,38.58
2017-11-10T09:10:41.605Z,36.58
2017-11-10T09:13:08.423Z,27.93
2017-11-10T09:15:35.291Z,28.83
2017-11-10T09:18:02.510Z,24.58
2017-11-10T09:20:29.657Z,30.97
2017-11-10T09:22:56.501Z,30.00
2017-11-10T09:25:23.344Z,28.73
2017-11-10T09:27:50.219Z,28.50
2017-11-10T09:30:17.068Z,25.42
2017-11-10T09:32:44.189Z,29.12
2017-11-10T09:35:11.062Z,25.70
2017-11-10T09:37:37.969Z,26.02
2017-11-10T09:40:05.122Z,28.70
2017-11-10T09:42:31.969Z,26.05
2017-11-10T09:44:58.818Z,24.55
2017-11-10T09:47:25.709Z,27.77
2017-11-10T09:49:52.549Z,25.77
2017-11-10T09:52:19.640Z,24.08
2017-11-10T09:54:46.481Z,21.92
2017-11-10T09:57:13.642Z,21.25
2017-11-10T09:59:40.508Z,23.38
2017-11-10T10:02:07.425Z,23.52
2017-11-10T10:04:34.286Z,22.37
2017-11-10T10:07:01.137Z,25.90
2017-11-10T10:09:27.965Z,23.65
2017-11-10T10:11:55.106Z,26.50
2017-11-10T10:14:21.949Z,29.98
2017-11-10T10:16:48.764Z,29.45
2017-11-10T10:19:15.642Z,28.30
2017-11-10T10:21:42.518Z,32.42
2017-11-10T10:24:09.357Z,34.25
2017-11-10T10:26:36.210Z,37.05
2017-11-10T10:29:03.074Z,37.20
2017-11-10T10:31:29.939Z,38.23
2017-11-10T10:33:56.797Z,36.33
2017-11-10T10:36:23.632Z,44.35
2017-11-10T10:38:50.501Z,38.55
2017-11-10T10:41:17.672Z,42.15
2017-11-10T10:43:44.554Z,41.90
2017-11-10T10:46:11.422Z,36.83
2017-11-10T10:48:38.569Z,33.85
2017-11-10T10:51:05.404Z,42.38
2017-11-10T10:53:32.569Z,44.95
2017-11-10T10:55:59.408Z,39.90
2017-11-10T10:58:26.270Z,35.95
2017-11-10T11:00:53.132Z,39.20
2017-11-10T11:03:20.003Z,35.92
2017-11-10T11:05:47.080Z,36.10
2017-11-10T11:08:13.964Z,29.50
2017-11-10T11:10:40.779Z,34.58
2017-11-10T11:13:08.531Z,27.13
2017-11-10T11:15:35.386Z,27.20
2017-11-10T11:18:02.234Z,29.67
2017-11-10T11:20:29.377Z,26.70
2017-11-10T11:22:56.533Z,32.50
2017-11-10T11:25:23.412Z,24.77
2017-11-10T11:27:50.289Z,25.60
2017-11-10T11:30:17.365Z,26.25
2017-11-10T11:32:44.513Z,26.77
2017-11-10T11:35:11.358Z,25.03
2017-11-10T11:37:38.210Z,23.12
2017-11-10T11:40:05.344Z,21.40
2017-11-10T11:42:32.164Z,22.27
2017-11-10T11:44:59.035Z,26.42
2017-11-10T11:47:25.856Z,23.70
2017-11-10T11:49:52.728Z,23.83
2017-11-10T11:52:19.578Z,18.87
2017-11-10T11:54:46.416Z,17.83
2017-11-10T11:57:13.245Z,18.10
2017-11-10T11:59:40.114Z,20.57
2017-11-10T12:02:07.346Z,23.67
2017-11-10T12:04:34.201Z,19.58
2017-11-10T12:07:01.041Z,21.50
2017-11-10T12:09:27.910Z,19.73
2017-11-10T12:11:55.026Z,18.60
2017-11-10T12:14:23.034Z,16.52
2017-11-10T12:16:49.876Z,13.43
2017-11-10T12:19:16.742Z,14.48
2017-11-10T12:21:43.621Z,16.40
2017-11-10T12:24:10.779Z,16.02
2017-11-10T12:26:37.693Z,18.80
2017-11-10T12:29:04.530Z,23.55
2017-11-10T12:31:31.367Z,36.25
2017-11-10T12:33:58.456Z,21.77
2017-11-10T12:36:25.325Z,17.35
2017-11-10T12:38:52.554Z,32.72
2017-11-10T12:41:19.442Z,15.15
2017-11-10T12:43:46.544Z,16.23
2017-11-10T12:46:13.417Z,13.35
2017-11-10T12:48:40.533Z,15.80
2017-11-10T12:51:07.690Z,14.85
2017-11-10T12:53:34.562Z,17.33
2017-11-10T12:56:01.429Z,14.02
2017-11-10T12:58:28.322Z,19.37
2017-11-10T13:00:55.193Z,14.75
2017-11-10T13:03:22.318Z,14.98
2017-11-10T13:05:49.210Z,17.98
2017-11-10T13:08:16.053Z,19.98
2017-11-10T13:10:42.880Z,17.42
2017-11-10T13:13:09.737Z,17.73
2017-11-10T13:15:36.604Z,19.70
2017-11-10T13:18:03.677Z,17.87
2017-11-10T13:20:30.542Z,22.53
2017-11-10T13:22:57.458Z,19.70
2017-11-10T13:25:24.277Z,17.02
2017-11-10T13:27:51.464Z,19.67
2017-11-10T13:30:18.273Z,20.20
2017-11-10T13:32:45.112Z,17.05
2017-11-10T13:35:11.981Z,17.10
2017-11-10T13:37:39.213Z,16.60
2017-11-10T13:40:06.081Z,17.83
2017-11-10T13:42:32.918Z,17.10
2017-11-10T13:45:00.098Z,17.70
2017-11-10T13:47:26.986Z,15.60
2017-11-10T13:49:53.842Z,19.25
2017-11-10T13:52:20.729Z,19.23
2017-11-10T13:54:47.545Z,16.70
2017-11-10T13:57:14.382Z,19.00
2017-11-10T13:59:41.544Z,19.70
2017-11-10T14:02:08.394Z,18.15
2017-11-10T14:04:35.545Z,20.13
2017-11-10T14:07:02.372Z,18.40
2017-11-10T14:09:29.930Z,18.90
2017-11-10T14:11:57.317Z,20.58
2017-11-10T14:14:24.555Z,17.58
2017-11-10T14:16:51.398Z,20.23
2017-11-10T14:19:18.233Z,23.35
2017-11-10T14:21:45.102Z,26.40
2017-11-10T14:24:11.958Z,21.40
2017-11-10T14:26:38.822Z,24.15
2017-11-10T14:29:05.912Z,12.02
2017-11-10T14:31:32.791Z,10.65
2017-11-10T14:33:59.628Z,12.32
2017-11-10T14:36:26.758Z,8.95
2017-11-10T14:38:53.577Z,9.27
2017-11-10T14:41:20.425Z,4.82
2017-11-10T14:43:47.304Z,5.32
2017-11-10T14:46:14.198Z,9.38
2017-11-10T14:48:41.016Z,9.00
2017-11-10T14:51:07.851Z,9.70
2017-11-10T14:53:34.688Z,7.60
2017-11-10T14:56:01.536Z,8.18
2017-11-10T14:58:28.648Z,8.60
2017-11-10T15:00:55.452Z,7.15
2017-11-10T15:03:22.539Z,7.40
2017-11-10T15:05:49.603Z,12.27
2017-11-10T15:08:16.440Z,11.02
2017-11-10T15:10:43.298Z,5.97
2017-11-10T15:13:10.524Z,5.40
2017-11-10T15:15:37.348Z,7.82
2017-11-10T15:18:04.222Z,7.32
2017-11-10T15:20:31.098Z,7.87
2017-11-10T15:22:57.961Z,9.03
2017-11-10T15:25:24.780Z,5.73
2017-11-10T15:27:51.630Z,7.72
2017-11-10T15:30:18.733Z,3.47
2017-11-10T15:32:45.615Z,8.40
2017-11-10T15:35:12.486Z,6.00
2017-11-10T15:37:39.344Z,6.10
2017-11-10T15:40:06.434Z,5.90
2017-11-10T15:42:33.273Z,7.05
2017-11-10T15:45:00.167Z,8.75
2017-11-10T15:47:27.033Z,6.30
2017-11-10T15:49:53.858Z,7.80
2017-11-10T15:52:20.690Z,6.20
2017-11-10T15:54:47.778Z,7.20
2017-11-10T15:57:14.928Z,6.47
2017-11-10T15:59:41.764Z,8.88
2017-11-10T16:02:08.621Z,11.35
2017-11-10T16:04:35.498Z,7.18
2017-11-10T16:07:02.557Z,6.30
2017-11-10T16:09:29.626Z,7.25
2017-11-10T16:11:56.499Z,7.80
2017-11-10T16:14:23.553Z,9.38
2017-11-10T16:16:50.386Z,6.75
2017-11-10T16:19:17.293Z,8.00
2017-11-10T16:21:44.153Z,7.60
2017-11-10T16:24:10.984Z,8.52
2017-11-10T16:26:38.073Z,12.35
2017-11-10T16:29:05.128Z,6.82
2017-11-10T16:31:31.990Z,8.73
2017-11-10T16:33:58.804Z,12.93
2017-11-10T16:36:25.679Z,8.98
2017-11-10T16:38:52.497Z,10.70
2017-11-10T16:41:19.586Z,13.32
2017-11-10T16:43:46.688Z,11.65
2017-11-10T16:46:13.504Z,9.23
2017-11-10T16:48:40.365Z,10.02
2017-11-10T16:51:07.201Z,10.35
2017-11-10T16:53:34.097Z,12.43
2017-11-10T16:56:00.973Z,14.20
2017-11-10T16:58:28.160Z,11.10
2017-11-10T17:00:55.025Z,13.35
2017-11-10T17:03:22.110Z,10.30
2017-11-10T17:05:49.206Z,20.33
2017-11-10T17:08:16.074Z,10.43
2017-11-10T17:10:43.197Z,14.13
2017-11-10T17:13:10.032Z,19.40
2017-11-10T17:15:37.190Z,14.20
2017-11-10T17:18:04.044Z,13.90
2017-11-10T17:20:30.888Z,16.05
2017-11-10T17:22:57.995Z,15.80
2017-11-10T17:25:24.870Z,15.20
2017-11-10T17:27:52.024Z,10.93
2017-11-10T17:30:19.164Z,11.52
2017-11-10T17:32:46.016Z,12.50
2017-11-10T17:35:12.878Z,17.12
2017-11-10T17:37:39.745Z,12.88
2017-11-10T17:40:06.610Z,13.62
2017-11-10T17:42:33.495Z,15.48
2017-11-10T17:45:00.373Z,13.02
2017-11-10T17:47:27.690Z,19.60
2017-11-10T17:49:54.577Z,15.63
2017-11-10T17:52:21.684Z,21.45
2017-11-10T17:54:48.559Z,21.25
2017-11-10T17:57:15.466Z,11.90
2017-11-10T17:59:42.622Z,16.40
2017-11-10T18:02:09.770Z,12.60
2017-11-10T18:04:36.673Z,15.43
2017-11-10T18:07:03.493Z,16.67
2017-11-10T18:09:30.600Z,14.60
2017-11-10T18:11:57.762Z,11.38
2017-11-10T18:14:24.681Z,15.57
2017-11-10T18:16:51.499Z,15.77
2017-11-10T18:19:18.361Z,10.40
2017-11-10T18:21:45.542Z,9.32
2017-11-10T18:24:12.385Z,8.70
2017-11-10T18:26:39.532Z,14.68
2017-11-10T18:29:06.342Z,14.55
2017-11-10T18:31:33.196Z,12.82
2017-11-10T18:34:00.375Z,11.65
2017-11-10T18:36:27.233Z,12.57
2017-11-10T18:38:54.121Z,16.67
2017-11-10T18:41:21.006Z,9.43
2017-11-10T18:43:48.257Z,7.95
2017-11-10T18:46:15.357Z,10.10
2017-11-10T18:48:42.554Z,7.68
2017-11-10T18:51:09.445Z,14.00
2017-11-10T18:53:36.650Z,6.62
2017-11-10T18:56:03.501Z,6.75
2017-11-10T18:58:30.332Z,9.68
2017-11-10T19:00:57.160Z,10.30
2017-11-10T19:03:24.065Z,14.40
2017-11-10T19:05:50.962Z,10.85
2017-11-10T19:08:18.112Z,13.70
2017-11-10T19:10:44.980Z,13.48
2017-11-10T19:13:11.806Z,10.68
2017-11-10T19:15:38.923Z,24.58
2017-11-10T19:18:06.106Z,10.73
2017-11-10T19:20:32.945Z,11.30
2017-11-10T19:22:59.795Z,8.37
2017-11-10T19:25:26.701Z,13.53
2017-11-10T19:27:53.780Z,9.45
2017-11-10T19:30:20.594Z,10.18
2017-11-10T19:32:47.408Z,6.67
2017-11-10T19:35:14.244Z,7.62
2017-11-10T19:37:41.362Z,7.95
2017-11-10T19:40:08.200Z,7.83
2017-11-10T19:42:35.059Z,5.03
2017-11-10T19:45:01.914Z,9.15
2017-11-10T19:47:28.767Z,9.30
2017-11-10T19:49:55.613Z,5.57
2017-11-10T19:52:22.493Z,7.55
2017-11-10T19:54:49.350Z,6.32
2017-11-10T19:57:16.213Z,6.50
2017-11-10T19:59:43.304Z,9.35
2017-11-10T20:02:10.400Z,7.03
2017-11-10T20:04:37.266Z,6.50
2017-11-10T20:07:04.410Z,11.60
2017-11-10T20:09:31.318Z,20.77
2017-11-10T20:11:58.177Z,8.43
2017-11-10T20:14:25.337Z,6.60
2017-11-10T20:16:52.485Z,9.10
2017-11-10T20:19:19.642Z,9.52
2017-11-10T20:21:46.474Z,5.80
2017-11-10T20:24:13.293Z,9.73
2017-11-10T20:26:40.117Z,8.70
2017-11-10T20:29:06.939Z,4.18
2017-11-10T20:31:33.797Z,4.82
2017-11-10T20:34:00.618Z,14.23
2017-11-10T20:36:27.744Z,6.45
2017-11-10T20:38:54.752Z,5.25
2017-11-10T20:41:21.572Z,8.20
2017-11-10T20:43:48.680Z,5.65
2017-11-10T20:46:15.524Z,7.40
2017-11-10T20:48:42.373Z,6.25
2017-11-10T20:51:09.192Z,6.05
2017-11-10T20:53:36.228Z,8.55
2017-11-10T20:56:03.067Z,8.70
2017-11-10T20:58:29.914Z,8.15
2017-11-10T21:00:56.805Z,8.32
2017-11-10T21:03:23.645Z,9.65
2017-11-10T21:05:50.540Z,9.65
2017-11-10T21:08:17.625Z,14.68
2017-11-10T21:10:44.469Z,9.60
2017-11-10T21:13:11.340Z,12.27
2017-11-10T21:15:38.167Z,12.93
2017-11-10T21:18:05.038Z,11.38
2017-11-10T21:20:31.918Z,14.15
2017-11-10T21:22:59.709Z,11.43
2017-11-10T21:25:26.564Z,9.98
2017-11-10T21:27:53.482Z,10.25
2017-11-10T21:30:20.337Z,15.93
2017-11-10T21:32:47.181Z,10.18
2017-11-10T21:35:14.047Z,8.98
2017-11-10T21:37:41.187Z,9.73
2017-11-10T21:40:08.334Z,10.02
2017-11-10T21:42:35.199Z,9.35
2017-11-10T21:45:02.058Z,6.68
2017-11-10T21:47:28.884Z,9.48
2017-11-10T21:49:55.736Z,13.05
2017-11-10T21:52:22.549Z,15.60
2017-11-10T21:54:49.432Z,9.30
2017-11-10T21:57:16.358Z,9.02
2017-11-10T21:59:43.189Z,11.27
2017-11-10T22:02:10.027Z,9.47
2017-11-10T22:04:37.279Z,6.33
2017-11-10T22:07:04.417Z,8.05
2017-11-10T22:09:31.241Z,3.45
2017-11-10T22:11:58.121Z,3.85
2017-11-10T22:14:24.966Z,5.22
2017-11-10T22:16:52.096Z,6.55
2017-11-10T22:19:18.969Z,5.00
2017-11-10T22:21:46.070Z,2.37
2017-11-10T22:24:12.958Z,4.72
2017-11-10T22:26:39.822Z,4.82
2017-11-10T22:29:07.456Z,4.32
2017-11-10T22:31:34.592Z,5.50
2017-11-10T22:34:01.466Z,4.40
2017-11-10T22:36:28.320Z,2.58
2017-11-10T22:38:55.384Z,2.30
2017-11-10T22:41:22.235Z,3.15
2017-11-10T22:43:49.136Z,2.33
2017-11-10T22:46:16.269Z,2.60
2017-11-10T22:48:43.413Z,2.00
2017-11-10T22:51:10.267Z,1.40
2017-11-10T22:53:37.100Z,1.70
2017-11-10T22:56:04.010Z,1.90
2017-11-10T22:58:31.568Z,1.10
2017-11-10T23:00:58.400Z,2.97
2017-11-10T23:03:25.605Z,1.83
2017-11-10T23:05:52.596Z,2.83
2017-11-10T23:08:21.750Z,3.92
2017-11-10T23:10:48.645Z,1.70
2017-11-10T23:13:15.593Z,3.00
2017-11-10T23:15:42.685Z,1.60
2017-11-10T23:18:09.513Z,3.33
2017-11-10T23:20:36.393Z,5.30
2017-11-10T23:23:03.230Z,3.70
2017-11-10T23:25:30.365Z,4.45
2017-11-10T23:27:57.192Z,4.05
2017-11-10T23:30:24.008Z,2.58
2017-11-10T23:32:51.196Z,1.90
2017-11-10T23:35:18.016Z,1.65
2017-11-10T23:37:44.835Z,3.37
2017-11-10T23:40:11.697Z,3.47
2017-11-10T23:42:38.533Z,3.42
2017-11-10T23:45:05.620Z,2.80
2017-11-10T23:47:32.810Z,7.00
2017-11-10T23:49:59.931Z,5.62
2017-11-10T23:52:26.736Z,0.87
2017-11-10T23:54:53.921Z,3.65
2017-11-10T23:57:20.775Z,4.53
2017-11-10T23:59:47.596Z,2.70
